Time,TemperatureF,DewpointF,PressureIn,WindDirection,WindDirectionDegrees,WindSpeedMPH,WindSpeedGustMPH,Humidity,HourlyPrecipIn,Conditions,Clouds,dailyrainin,SoftwareType,DateUTC
2013-06-19 00:01:00,79.0,22.0,29.61,West,259,5.0,-999.0,12,-99.99,,,-99.99,,2013-06-19 07:01:00,
2013-06-19 00:11:00,76.0,22.0,29.60,WNW,286,3.0,-999.0,13,-99.99,,,-99.99,,2013-06-19 07:11:00,
2013-06-19 00:22:00,76.0,22.0,29.60,WNW,286,3.0,-999.0,13,-99.99,,,-99.99,,2013-06-19 07:22:00,
2013-06-19 00:33:00,76.0,22.0,29.60,WNW,284,2.0,-999.0,13,-99.99,,,-99.99,,2013-06-19 07:33:00,
2013-06-19 00:43:00,76.0,22.0,29.59,WNW,287,2.0,-999.0,13,-99.99,,,-99.99,,2013-06-19 07:43:00,
2013-06-19 00:53:00,76.0,22.0,29.59,WNW,287,2.0,-999.0,13,-99.99,,,-99.99,,2013-06-19 07:53:00,
2013-06-19 01:01:00,75.0,21.0,29.59,WNW,287,0.0,-999.0,13,-99.99,,,-99.99,,2013-06-19 08:01:00,
2013-06-19 01:11:00,71.0,21.0,29.59,WNW,287,0.0,-999.0,15,-99.99,,,-99.99,,2013-06-19 08:11:00,
2013-06-19 01:22:00,71.0,21.0,29.59,WNW,287,0.0,-999.0,15,-99.99,,,-99.99,,2013-06-19 08:22:00,
2013-06-19 01:33:00,70.0,22.0,29.59,WNW,287,0.0,-999.0,16,-99.99,,,-99.99,,2013-06-19 08:33:00,
2013-06-19 01:42:00,70.0,22.0,29.59,WNW,287,0.0,-999.0,16,-99.99,,,-99.99,,2013-06-19 08:42:00,
2013-06-19 01:53:00,70.0,22.0,29.59,WNW,287,0.0,-999.0,16,-99.99,,,-99.99,,2013-06-19 08:53:00,
2013-06-19 02:02:00,65.0,23.0,29.58,WNW,287,0.0,-999.0,20,-99.99,,,-99.99,,2013-06-19 09:02:00,
2013-06-19 02:11:00,65.0,23.0,29.58,WNW,287,0.0,-999.0,20,-99.99,,,-99.99,,2013-06-19 09:11:00,
2013-06-19 02:22:00,64.0,22.0,29.58,WNW,287,0.0,-999.0,20,-99.99,,,-99.99,,2013-06-19 09:22:00,
2013-06-19 02:34:00,63.0,22.0,29.57,WNW,287,0.0,-999.0,21,-99.99,,,-99.99,,2013-06-19 09:34:00,
2013-06-19 02:43:00,62.0,22.0,29.58,WNW,287,0.0,-999.0,21,-99.99,,,-99.99,,2013-06-19 09:43:00,
2013-06-19 02:53:00,62.0,22.0,29.58,WNW,287,0.0,-999.0,21,-99.99,,,-99.99,,2013-06-19 09:53:00,
2013-06-19 03:01:00,62.0,22.0,29.58,WNW,287,0.0,-999.0,21,-99.99,,,-99.99,,2013-06-19 10:01:00,
2013-06-19 03:11:00,62.0,22.0,29.58,WNW,287,0.0,-999.0,21,-99.99,,,-99.99,,2013-06-19 10:11:00,
2013-06-19 03:22:00,62.0,22.0,29.57,WNW,287,0.0,-999.0,21,-99.99,,,-99.99,,2013-06-19 10:22:00,
2013-06-19 03:33:00,62.0,22.0,29.58,WNW,287,0.0,-999.0,21,-99.99,,,-99.99,,2013-06-19 10:33:00,
2013-06-19 03:42:00,62.0,23.0,29.58,WNW,287,0.0,-999.0,22,-99.99,,,-99.99,,2013-06-19 10:42:00,
2013-06-19 03:52:00,62.0,23.0,29.58,WNW,287,0.0,-999.0,22,-99.99,,,-99.99,,2013-06-19 10:52:00,
2013-06-19 04:02:00,61.0,22.0,29.58,WNW,287,0.0,-999.0,22,-99.99,,,-99.99,,2013-06-19 11:02:00,
2013-06-19 04:11:00,61.0,22.0,29.58,WNW,287,0.0,-999.0,22,-99.99,,,-99.99,,2013-06-19 11:11:00,
2013-06-19 04:22:00,62.0,23.0,29.59,WNW,287,0.0,-999.0,22,-99.99,,,-99.99,,2013-06-19 11:22:00,
2013-06-19 04:33:00,61.0,22.0,29.58,WNW,287,0.0,-999.0,22,-99.99,,,-99.99,,2013-06-19 11:33:00,
2013-06-19 04:42:00,62.0,22.0,29.59,WNW,287,1.0,-999.0,21,-99.99,,,-99.99,,2013-06-19 11:42:00,
2013-06-19 04:54:00,62.0,22.0,29.59,WNW,287,1.0,-999.0,21,-99.99,,,-99.99,,2013-06-19 11:54:00,
2013-06-19 05:01:00,63.0,24.0,29.59,WNW,287,0.0,-999.0,22,-99.99,,,-99.99,,2013-06-19 12:01:00,
2013-06-19 05:11:00,62.0,23.0,29.60,WNW,287,0.0,-999.0,22,-99.99,,,-99.99,,2013-06-19 12:11:00,
2013-06-19 05:22:00,62.0,23.0,29.60,WNW,287,0.0,-999.0,22,-99.99,,,-99.99,,2013-06-19 12:22:00,
2013-06-19 05:34:00,62.0,24.0,29.60,WNW,287,0.0,-999.0,23,-99.99,,,-99.99,,2013-06-19 12:34:00,
2013-06-19 05:44:00,61.0,23.0,29.61,WNW,287,0.0,-999.0,23,-99.99,,,-99.99,,2013-06-19 12:44:00,
2013-06-19 05:52:00,61.0,23.0,29.61,WNW,287,0.0,-999.0,23,-99.99,,,-99.99,,2013-06-19 12:52:00,
2013-06-19 06:02:00,61.0,23.0,29.61,WNW,287,0.0,-999.0,23,-99.99,,,-99.99,,2013-06-19 13:02:00,
2013-06-19 06:11:00,61.0,23.0,29.61,WNW,287,0.0,-999.0,23,-99.99,,,-99.99,,2013-06-19 13:11:00,
2013-06-19 06:22:00,61.0,25.0,29.61,WNW,287,0.0,-999.0,25,-99.99,,,-99.99,,2013-06-19 13:22:00,
2013-06-19 06:33:00,63.0,27.0,29.62,WNW,287,0.0,-999.0,25,-99.99,,,-99.99,,2013-06-19 13:33:00,
2013-06-19 06:42:00,66.0,32.0,29.62,WNW,287,0.0,-999.0,28,-99.99,,,-99.99,,2013-06-19 13:42:00,
2013-06-19 06:53:00,66.0,32.0,29.62,WNW,287,0.0,-999.0,28,-99.99,,,-99.99,,2013-06-19 13:53:00,
2013-06-19 07:02:00,68.0,29.0,29.62,WNW,287,0.0,-999.0,23,-99.99,,,-99.99,,2013-06-19 14:02:00,
2013-06-19 07:11:00,68.0,29.0,29.62,WNW,287,0.0,-999.0,23,-99.99,,,-99.99,,2013-06-19 14:11:00,
2013-06-19 07:22:00,71.0,30.0,29.62,WNW,287,0.0,-999.0,22,-99.99,,,-99.99,,2013-06-19 14:22:00,
2013-06-19 07:33:00,74.0,30.0,29.62,WNW,288,0.0,-999.0,20,-99.99,,,-99.99,,2013-06-19 14:33:00,
2013-06-19 07:43:00,77.0,30.0,29.62,South,180,0.0,-999.0,18,-99.99,,,-99.99,,2013-06-19 14:43:00,
2013-06-19 07:52:00,77.0,30.0,29.62,South,180,0.0,-999.0,18,-99.99,,,-99.99,,2013-06-19 14:52:00,
2013-06-19 08:01:00,78.0,31.0,29.62,ESE,113,1.0,-999.0,18,-99.99,,,-99.99,,2013-06-19 15:01:00,
2013-06-19 08:11:00,78.0,31.0,29.62,ESE,113,1.0,-999.0,18,-99.99,,,-99.99,,2013-06-19 15:11:00,
2013-06-19 08:22:00,79.0,32.0,29.62,ESE,105,1.0,-999.0,18,-99.99,,,-99.99,,2013-06-19 15:22:00,
2013-06-19 08:33:00,80.0,31.0,29.62,ESE,107,0.0,-999.0,17,-99.99,,,-99.99,,2013-06-19 15:33:00,
2013-06-19 08:42:00,83.0,32.0,29.62,ESE,121,3.0,-999.0,16,-99.99,,,-99.99,,2013-06-19 15:42:00,
2013-06-19 08:52:00,83.0,32.0,29.62,ESE,121,3.0,-999.0,16,-99.99,,,-99.99,,2013-06-19 15:52:00,
2013-06-19 09:01:00,84.0,31.0,29.62,ENE,73,2.0,-999.0,15,-99.99,,,-99.99,,2013-06-19 16:01:00,
2013-06-19 09:11:00,84.0,31.0,29.62,ENE,73,2.0,-999.0,15,-99.99,,,-99.99,,2013-06-19 16:11:00,
2013-06-19 09:22:00,84.0,30.0,29.61,ESE,115,2.0,-999.0,14,-99.99,,,-99.99,,2013-06-19 16:22:00,
2013-06-19 09:33:00,87.0,32.0,29.61,NNW,336,0.0,-999.0,14,-99.99,,,-99.99,,2013-06-19 16:33:00,
2013-06-19 09:43:00,88.0,29.0,29.60,WNW,284,3.0,-999.0,12,-99.99,,,-99.99,,2013-06-19 16:43:00,
2013-06-19 09:52:00,88.0,29.0,29.60,WNW,284,3.0,-999.0,12,-99.99,,,-99.99,,2013-06-19 16:52:00,
2013-06-19 10:02:00,89.0,28.0,29.61,SW,231,6.0,-999.0,11,-99.99,,,-99.99,,2013-06-19 17:02:00,
2013-06-19 10:11:00,89.0,28.0,29.61,SW,231,6.0,-999.0,11,-99.99,,,-99.99,,2013-06-19 17:11:00,
2013-06-19 10:22:00,90.0,28.0,29.60,SW,227,7.0,-999.0,11,-99.99,,,-99.99,,2013-06-19 17:22:00,
2013-06-19 10:34:00,90.0,28.0,29.60,SW,227,7.0,-999.0,11,-99.99,,,-99.99,,2013-06-19 17:34:00,
2013-06-19 10:43:00,91.0,27.0,29.60,SW,217,6.0,-999.0,10,-99.99,,,-99.99,,2013-06-19 17:43:00,
2013-06-19 10:53:00,91.0,27.0,29.60,SW,217,6.0,-999.0,10,-99.99,,,-99.99,,2013-06-19 17:53:00,
2013-06-19 11:01:00,90.0,28.0,29.60,SSE,156,3.0,-999.0,11,-99.99,,,-99.99,,2013-06-19 18:01:00,
2013-06-19 11:11:00,90.0,28.0,29.60,SSE,156,3.0,-999.0,11,-99.99,,,-99.99,,2013-06-19 18:11:00,
2013-06-19 11:23:00,92.0,28.0,29.59,SW,230,7.0,-999.0,10,-99.99,,,-99.99,,2013-06-19 18:23:00,
2013-06-19 11:33:00,91.0,27.0,29.59,WSW,242,5.0,-999.0,10,-99.99,,,-99.99,,2013-06-19 18:33:00,
2013-06-19 11:43:00,92.0,28.0,29.59,SW,229,5.0,-999.0,10,-99.99,,,-99.99,,2013-06-19 18:43:00,
2013-06-19 11:52:00,92.0,28.0,29.59,SW,229,5.0,-999.0,10,-99.99,,,-99.99,,2013-06-19 18:52:00,
2013-06-19 12:01:00,94.0,27.0,29.58,SE,136,4.0,-999.0,9,-99.99,,,-99.99,,2013-06-19 19:01:00,
2013-06-19 12:11:00,94.0,27.0,29.58,West,259,10.0,-999.0,9,-99.99,,,-99.99,,2013-06-19 19:11:00,
2013-06-19 12:22:00,94.0,27.0,29.58,West,259,10.0,-999.0,9,-99.99,,,-99.99,,2013-06-19 19:22:00,
2013-06-19 12:32:00,95.0,27.0,29.57,South,184,3.0,-999.0,9,-99.99,,,-99.99,,2013-06-19 19:32:00,
2013-06-19 12:43:00,95.0,27.0,29.57,West,267,6.0,-999.0,9,-99.99,,,-99.99,,2013-06-19 19:43:00,
2013-06-19 12:52:00,95.0,27.0,29.57,West,267,6.0,-999.0,9,-99.99,,,-99.99,,2013-06-19 19:52:00,
2013-06-19 13:02:00,96.0,28.0,29.56,WSW,248,6.0,-999.0,9,-99.99,,,-99.99,,2013-06-19 20:02:00,
2013-06-19 13:11:00,96.0,28.0,29.56,WSW,248,6.0,-999.0,9,-99.99,,,-99.99,,2013-06-19 20:11:00,
2013-06-19 13:22:00,96.0,28.0,29.56,South,190,8.0,-999.0,9,-99.99,,,-99.99,,2013-06-19 20:22:00,
2013-06-19 13:33:00,95.0,27.0,29.55,SSW,199,7.0,-999.0,9,-99.99,,,-99.99,,2013-06-19 20:33:00,
2013-06-19 13:42:00,96.0,28.0,29.55,West,273,7.0,-999.0,9,-99.99,,,-99.99,,2013-06-19 20:42:00,
2013-06-19 13:52:00,96.0,28.0,29.55,West,273,7.0,-999.0,9,-99.99,,,-99.99,,2013-06-19 20:52:00,
2013-06-19 14:02:00,95.0,27.0,29.55,WSW,238,10.0,-999.0,9,-99.99,,,-99.99,,2013-06-19 21:02:00,
2013-06-19 14:11:00,95.0,27.0,29.55,WSW,238,10.0,-999.0,9,-99.99,,,-99.99,,2013-06-19 21:11:00,
2013-06-19 14:22:00,96.0,28.0,29.55,WNW,303,9.0,-999.0,9,-99.99,,,-99.99,,2013-06-19 21:22:00,
2013-06-19 14:33:00,96.0,28.0,29.54,WSW,250,7.0,-999.0,9,-99.99,,,-99.99,,2013-06-19 21:33:00,
2013-06-19 14:44:00,95.0,27.0,29.54,WSW,250,10.0,-999.0,9,-99.99,,,-99.99,,2013-06-19 21:44:00,
2013-06-19 14:52:00,95.0,27.0,29.54,WSW,250,10.0,-999.0,9,-99.99,,,-99.99,,2013-06-19 21:52:00,
2013-06-19 15:01:00,96.0,28.0,29.54,West,275,11.0,-999.0,9,-99.99,,,-99.99,,2013-06-19 22:01:00,
2013-06-19 15:11:00,96.0,28.0,29.54,West,275,11.0,-999.0,9,-99.99,,,-99.99,,2013-06-19 22:11:00,
2013-06-19 15:22:00,95.0,24.0,29.53,SSW,211,10.0,-999.0,8,-99.99,,,-99.99,,2013-06-19 22:22:00,
2013-06-19 15:34:00,96.0,22.0,29.53,WSW,256,6.0,-999.0,7,-99.99,,,-99.99,,2013-06-19 22:34:00,
2013-06-19 15:42:00,95.0,21.0,29.53,SSW,200,9.0,-999.0,7,-99.99,,,-99.99,,2013-06-19 22:42:00,
2013-06-19 15:53:00,95.0,21.0,29.53,SSW,200,9.0,-999.0,7,-99.99,,,-99.99,,2013-06-19 22:53:00,
2013-06-19 16:02:00,94.0,24.0,29.54,WNW,288,8.0,-999.0,8,-99.99,,,-99.99,,2013-06-19 23:02:00,
2013-06-19 16:11:00,93.0,23.0,29.53,SW,223,9.0,-999.0,8,-99.99,,,-99.99,,2013-06-19 23:11:00,
2013-06-19 16:22:00,93.0,23.0,29.53,SW,223,9.0,-999.0,8,-99.99,,,-99.99,,2013-06-19 23:22:00,
2013-06-19 16:33:00,93.0,23.0,29.53,WSW,243,8.0,-999.0,8,-99.99,,,-99.99,,2013-06-19 23:33:00,
2013-06-19 16:43:00,94.0,21.0,29.53,West,281,4.0,-999.0,7,-99.99,,,-99.99,,2013-06-19 23:43:00,
2013-06-19 16:52:00,94.0,21.0,29.53,West,281,4.0,-999.0,7,-99.99,,,-99.99,,2013-06-19 23:52:00,
2013-06-19 17:01:00,92.0,19.0,29.53,SW,234,9.0,-999.0,7,-99.99,,,-99.99,,2013-06-20 00:01:00,
2013-06-19 17:11:00,92.0,19.0,29.53,SW,234,9.0,-999.0,7,-99.99,,,-99.99,,2013-06-20 00:11:00,
2013-06-19 17:22:00,92.0,22.0,29.53,West,273,7.0,-999.0,8,-99.99,,,-99.99,,2013-06-20 00:22:00,
2013-06-19 17:33:00,92.0,19.0,29.53,SSW,208,4.0,-999.0,7,-99.99,,,-99.99,,2013-06-20 00:33:00,
2013-06-19 17:43:00,92.0,19.0,29.53,WNW,293,5.0,-999.0,7,-99.99,,,-99.99,,2013-06-20 00:43:00,
2013-06-19 17:52:00,92.0,19.0,29.53,WNW,293,5.0,-999.0,7,-99.99,,,-99.99,,2013-06-20 00:52:00,
2013-06-19 18:01:00,91.0,15.0,29.54,SE,140,7.0,-999.0,6,-99.99,,,-99.99,,2013-06-20 01:01:00,
2013-06-19 18:11:00,90.0,18.0,29.54,WSW,241,6.0,-999.0,7,-99.99,,,-99.99,,2013-06-20 01:11:00,
2013-06-19 18:22:00,90.0,18.0,29.54,WSW,241,6.0,-999.0,7,-99.99,,,-99.99,,2013-06-20 01:22:00,
2013-06-19 18:33:00,90.0,18.0,29.54,WSW,241,6.0,-999.0,7,-99.99,,,-99.99,,2013-06-20 01:33:00,
2013-06-19 18:44:00,89.0,17.0,29.55,SW,221,5.0,-999.0,7,-99.99,,,-99.99,,2013-06-20 01:44:00,
2013-06-19 18:52:00,89.0,17.0,29.55,SW,221,5.0,-999.0,7,-99.99,,,-99.99,,2013-06-20 01:52:00,
2013-06-19 19:02:00,88.0,19.0,29.55,SW,236,1.0,-999.0,8,-99.99,,,-99.99,,2013-06-20 02:02:00,
2013-06-19 19:11:00,87.0,16.0,29.56,West,263,2.0,-999.0,7,-99.99,,,-99.99,,2013-06-20 02:11:00,
2013-06-19 19:23:00,87.0,16.0,29.56,West,263,2.0,-999.0,7,-99.99,,,-99.99,,2013-06-20 02:23:00,
2013-06-19 19:33:00,86.0,18.0,29.56,WSW,258,3.0,-999.0,8,-99.99,,,-99.99,,2013-06-20 02:33:00,
2013-06-19 19:43:00,84.0,16.0,29.56,WSW,255,0.0,-999.0,8,-99.99,,,-99.99,,2013-06-20 02:43:00,
2013-06-19 19:52:00,84.0,16.0,29.56,WSW,255,0.0,-999.0,8,-99.99,,,-99.99,,2013-06-20 02:52:00,
2013-06-19 20:02:00,83.0,16.0,29.57,SW,230,1.0,-999.0,8,-99.99,,,-99.99,,2013-06-20 03:02:00,
2013-06-19 20:11:00,83.0,16.0,29.57,SW,230,1.0,-999.0,8,-99.99,,,-99.99,,2013-06-20 03:11:00,
2013-06-19 20:43:00,76.0,18.0,29.58,SW,230,0.0,-999.0,11,-99.99,,,-99.99,,2013-06-20 03:43:00,
2013-06-19 20:53:00,76.0,18.0,29.58,SW,230,0.0,-999.0,11,-99.99,,,-99.99,,2013-06-20 03:53:00,
2013-06-19 21:01:00,75.0,19.0,29.58,SW,230,0.0,-999.0,12,-99.99,,,-99.99,,2013-06-20 04:01:00,
2013-06-19 21:11:00,75.0,19.0,29.58,SW,230,0.0,-999.0,12,-99.99,,,-99.99,,2013-06-20 04:11:00,
2013-06-19 21:43:00,73.0,17.0,29.59,SW,230,0.0,-999.0,12,-99.99,,,-99.99,,2013-06-20 04:43:00,
2013-06-19 21:53:00,73.0,17.0,29.59,SW,230,0.0,-999.0,12,-99.99,,,-99.99,,2013-06-20 04:53:00,
2013-06-19 22:11:00,68.0,19.0,29.60,SW,230,0.0,-999.0,15,-99.99,,,-99.99,,2013-06-20 05:11:00,
2013-06-19 23:01:00,69.0,18.0,29.60,SW,230,0.0,-999.0,14,-99.99,,,-99.99,,2013-06-20 06:01:00,
2013-06-19 23:22:00,71.0,19.0,29.60,SW,230,1.0,-999.0,14,-99.99,,,-99.99,,2013-06-20 06:22:00,
2013-06-19 23:33:00,73.0,17.0,29.60,WNW,285,2.0,-999.0,12,-99.99,,,-99.99,,2013-06-20 06:33:00,
2013-06-19 23:43:00,75.0,19.0,29.60,WNW,299,2.0,-999.0,12,-99.99,,,-99.99,,2013-06-20 06:43:00,
2013-06-19 23:53:00,75.0,19.0,29.60,WNW,299,2.0,-999.0,12,-99.99,,,-99.99,,2013-06-20 06:53:00,